sensor_id;sensor_type;location;lat;lon;timestamp;temperature;humidity
20977;DHT22;10647;51.016;3.720;2022-08-07T00:00:16;18.50;94.30
20977;DHT22;10647;51.016;3.720;2022-08-07T00:02:44;18.40;94.50
20977;DHT22;10647;51.016;3.720;2022-08-07T00:05:12;18.40;94.70
20977;DHT22;10647;51.016;3.720;2022-08-07T00:07:39;18.30;94.90
20977;DHT22;10647;51.016;3.720;2022-08-07T00:10:07;18.30;95.10
20977;DHT22;10647;51.016;3.720;2022-08-07T00:12:35;18.20;95.30
20977;DHT22;10647;51.016;3.720;2022-08-07T00:15:03;18.20;95.50
20977;DHT22;10647;51.016;3.720;2022-08-07T00:17:32;18.20;95.80
20977;DHT22;10647;51.016;3.720;2022-08-07T00:19:59;18.20;96.00
20977;DHT22;10647;51.016;3.720;2022-08-07T00:22:27;18.10;96.10
20977;DHT22;10647;51.016;3.720;2022-08-07T00:24:54;18.10;96.30
20977;DHT22;10647;51.016;3.720;2022-08-07T00:27:22;18.00;96.50
20977;DHT22;10647;51.016;3.720;2022-08-07T00:29:49;18.00;96.70
20977;DHT22;10647;51.016;3.720;2022-08-07T00:32:17;18.00;97.00
20977;DHT22;10647;51.016;3.720;2022-08-07T00:34:44;18.00;97.20
20977;DHT22;10647;51.016;3.720;2022-08-07T00:37:15;17.90;97.40
20977;DHT22;10647;51.016;3.720;2022-08-07T00:39:43;17.90;97.60
20977;DHT22;10647;51.016;3.720;2022-08-07T00:42:10;17.80;97.80
20977;DHT22;10647;51.016;3.720;2022-08-07T00:44:39;17.80;98.00
20977;DHT22;10647;51.016;3.720;2022-08-07T00:47:06;17.80;98.30
20977;DHT22;10647;51.016;3.720;2022-08-07T00:49:35;17.80;98.50
20977;DHT22;10647;51.016;3.720;2022-08-07T00:52:04;17.70;98.60
20977;DHT22;10647;51.016;3.720;2022-08-07T00:54:32;17.70;98.80
20977;DHT22;10647;51.016;3.720;2022-08-07T00:57:00;17.70;99.10
20977;DHT22;10647;51.016;3.720;2022-08-07T00:59:28;17.70;99.30
20977;DHT22;10647;51.016;3.720;2022-08-07T01:01:55;17.60;99.50
20977;DHT22;10647;51.016;3.720;2022-08-07T01:04:23;17.60;99.80
20977;DHT22;10647;51.016;3.720;2022-08-07T01:06:52;17.60;99.90
20977;DHT22;10647;51.016;3.720;2022-08-07T01:09:21;17.60;99.90
20977;DHT22;10647;51.016;3.720;2022-08-07T01:14:38;17.50;99.90
20977;DHT22;10647;51.016;3.720;2022-08-07T01:17:05;17.50;99.90
20977;DHT22;10647;51.016;3.720;2022-08-07T01:19:33;17.50;99.90
20977;DHT22;10647;51.016;3.720;2022-08-07T01:22:02;17.50;99.90
20977;DHT22;10647;51.016;3.720;2022-08-07T01:24:49;17.40;99.90
20977;DHT22;10647;51.016;3.720;2022-08-07T01:27:17;17.40;99.90
20977;DHT22;10647;51.016;3.720;2022-08-07T01:29:45;17.40;99.90
20977;DHT22;10647;51.016;3.720;2022-08-07T01:32:16;17.40;99.90
20977;DHT22;10647;51.016;3.720;2022-08-07T01:34:44;17.40;99.90
20977;DHT22;10647;51.016;3.720;2022-08-07T01:37:11;17.30;99.90
20977;DHT22;10647;51.016;3.720;2022-08-07T01:39:41;17.30;99.90
20977;DHT22;10647;51.016;3.720;2022-08-07T01:42:09;17.30;99.90
20977;DHT22;10647;51.016;3.720;2022-08-07T01:44:37;17.20;99.90
20977;DHT22;10647;51.016;3.720;2022-08-07T01:47:05;17.20;99.90
20977;DHT22;10647;51.016;3.720;2022-08-07T01:49:32;17.20;99.90
20977;DHT22;10647;51.016;3.720;2022-08-07T01:52:02;17.10;99.90
20977;DHT22;10647;51.016;3.720;2022-08-07T01:54:32;17.10;99.90
20977;DHT22;10647;51.016;3.720;2022-08-07T01:57:13;17.10;99.90
20977;DHT22;10647;51.016;3.720;2022-08-07T02:02:26;17.00;99.90
20977;DHT22;10647;51.016;3.720;2022-08-07T02:04:58;17.00;99.90
20977;DHT22;10647;51.016;3.720;2022-08-07T02:07:51;17.00;99.90
20977;DHT22;10647;51.016;3.720;2022-08-07T02:10:22;17.00;99.90
20977;DHT22;10647;51.016;3.720;2022-08-07T02:12:50;16.90;99.90
20977;DHT22;10647;51.016;3.720;2022-08-07T02:15:23;16.90;99.90
20977;DHT22;10647;51.016;3.720;2022-08-07T02:20:41;16.80;99.90
20977;DHT22;10647;51.016;3.720;2022-08-07T02:23:11;16.80;99.90
20977;DHT22;10647;51.016;3.720;2022-08-07T02:25:41;16.80;99.90
20977;DHT22;10647;51.016;3.720;2022-08-07T02:28:09;16.80;99.90
20977;DHT22;10647;51.016;3.720;2022-08-07T02:30:38;16.80;99.90
20977;DHT22;10647;51.016;3.720;2022-08-07T02:33:08;16.80;99.90
20977;DHT22;10647;51.016;3.720;2022-08-07T02:35:37;16.80;99.90
20977;DHT22;10647;51.016;3.720;2022-08-07T02:38:06;16.80;99.90
20977;DHT22;10647;51.016;3.720;2022-08-07T02:40:35;16.80;99.90
20977;DHT22;10647;51.016;3.720;2022-08-07T02:43:04;16.80;99.90
20977;DHT22;10647;51.016;3.720;2022-08-07T02:45:34;16.80;99.90
20977;DHT22;10647;51.016;3.720;2022-08-07T02:48:04;16.80;99.90
20977;DHT22;10647;51.016;3.720;2022-08-07T02:50:33;16.80;99.90
20977;DHT22;10647;51.016;3.720;2022-08-07T02:53:09;16.80;99.90
20977;DHT22;10647;51.016;3.720;2022-08-07T02:58:27;16.80;99.90
20977;DHT22;10647;51.016;3.720;2022-08-07T03:00:57;16.80;99.90
20977;DHT22;10647;51.016;3.720;2022-08-07T03:03:27;16.80;99.90
20977;DHT22;10647;51.016;3.720;2022-08-07T03:05:56;16.80;99.90
20977;DHT22;10647;51.016;3.720;2022-08-07T03:08:25;16.80;99.90
20977;DHT22;10647;51.016;3.720;2022-08-07T03:10:53;16.80;99.90
20977;DHT22;10647;51.016;3.720;2022-08-07T03:13:22;16.80;99.90
20977;DHT22;10647;51.016;3.720;2022-08-07T03:15:50;16.80;99.90
20977;DHT22;10647;51.016;3.720;2022-08-07T03:18:18;16.70;99.90
20977;DHT22;10647;51.016;3.720;2022-08-07T03:20:47;16.70;99.90
20977;DHT22;10647;51.016;3.720;2022-08-07T03:23:16;16.70;99.90
20977;DHT22;10647;51.016;3.720;2022-08-07T03:25:44;16.70;99.90
20977;DHT22;10647;51.016;3.720;2022-08-07T03:28:15;16.70;99.90
20977;DHT22;10647;51.016;3.720;2022-08-07T03:30:45;16.70;99.90
20977;DHT22;10647;51.016;3.720;2022-08-07T03:33:14;16.60;99.90
20977;DHT22;10647;51.016;3.720;2022-08-07T03:35:44;16.60;99.90
20977;DHT22;10647;51.016;3.720;2022-08-07T03:38:13;16.60;99.90
20977;DHT22;10647;51.016;3.720;2022-08-07T03:40:41;16.50;99.90
20977;DHT22;10647;51.016;3.720;2022-08-07T03:43:10;16.50;99.90
20977;DHT22;10647;51.016;3.720;2022-08-07T03:45:38;16.50;99.90
20977;DHT22;10647;51.016;3.720;2022-08-07T03:48:05;16.50;99.90
20977;DHT22;10647;51.016;3.720;2022-08-07T03:50:34;16.50;99.90
20977;DHT22;10647;51.016;3.720;2022-08-07T03:53:02;16.40;99.90
20977;DHT22;10647;51.016;3.720;2022-08-07T03:55:30;16.50;99.90
20977;DHT22;10647;51.016;3.720;2022-08-07T03:57:58;16.40;99.90
20977;DHT22;10647;51.016;3.720;2022-08-07T04:00:28;16.40;99.90
20977;DHT22;10647;51.016;3.720;2022-08-07T04:02:57;16.40;99.90
20977;DHT22;10647;51.016;3.720;2022-08-07T04:05:25;16.40;99.90
20977;DHT22;10647;51.016;3.720;2022-08-07T04:07:53;16.30;99.90
20977;DHT22;10647;51.016;3.720;2022-08-07T04:10:21;16.30;99.90
20977;DHT22;10647;51.016;3.720;2022-08-07T04:12:49;16.30;99.90
20977;DHT22;10647;51.016;3.720;2022-08-07T04:15:17;16.30;99.90
20977;DHT22;10647;51.016;3.720;2022-08-07T04:17:45;16.30;99.90
20977;DHT22;10647;51.016;3.720;2022-08-07T04:20:13;16.30;99.90
20977;DHT22;10647;51.016;3.720;2022-08-07T04:22:41;16.20;99.90
20977;DHT22;10647;51.016;3.720;2022-08-07T04:25:10;16.30;99.90
20977;DHT22;10647;51.016;3.720;2022-08-07T04:27:39;16.30;99.90
20977;DHT22;10647;51.016;3.720;2022-08-07T04:30:07;16.30;99.90
20977;DHT22;10647;51.016;3.720;2022-08-07T04:32:35;16.30;99.90
20977;DHT22;10647;51.016;3.720;2022-08-07T04:35:06;16.30;99.90
20977;DHT22;10647;51.016;3.720;2022-08-07T04:37:35;16.30;99.90
20977;DHT22;10647;51.016;3.720;2022-08-07T04:40:03;16.30;99.90
20977;DHT22;10647;51.016;3.720;2022-08-07T04:42:31;16.40;99.90
20977;DHT22;10647;51.016;3.720;2022-08-07T04:45:01;16.40;99.90
20977;DHT22;10647;51.016;3.720;2022-08-07T04:50:34;16.50;99.90
20977;DHT22;10647;51.016;3.720;2022-08-07T04:53:05;16.50;99.90
20977;DHT22;10647;51.016;3.720;2022-08-07T04:55:53;16.60;99.90
20977;DHT22;10647;51.016;3.720;2022-08-07T05:01:20;16.70;99.90
20977;DHT22;10647;51.016;3.720;2022-08-07T05:06:46;16.80;99.90
20977;DHT22;10647;51.016;3.720;2022-08-07T05:09:28;16.90;99.90
20977;DHT22;10647;51.016;3.720;2022-08-07T05:11:56;17.00;99.90
20977;DHT22;10647;51.016;3.720;2022-08-07T05:14:42;17.00;99.90
20977;DHT22;10647;51.016;3.720;2022-08-07T05:17:30;17.10;99.90
20977;DHT22;10647;51.016;3.720;2022-08-07T05:19:58;17.20;99.90
20977;DHT22;10647;51.016;3.720;2022-08-07T05:22:26;17.20;99.90
20977;DHT22;10647;51.016;3.720;2022-08-07T05:24:55;17.30;99.90
20977;DHT22;10647;51.016;3.720;2022-08-07T05:27:24;17.40;99.90
20977;DHT22;10647;51.016;3.720;2022-08-07T05:29:53;17.50;99.90
20977;DHT22;10647;51.016;3.720;2022-08-07T05:32:22;17.60;99.90
20977;DHT22;10647;51.016;3.720;2022-08-07T05:34:51;17.60;99.90
20977;DHT22;10647;51.016;3.720;2022-08-07T05:37:21;17.70;99.90
20977;DHT22;10647;51.016;3.720;2022-08-07T05:39:49;17.80;99.90
20977;DHT22;10647;51.016;3.720;2022-08-07T05:42:18;17.90;99.90
20977;DHT22;10647;51.016;3.720;2022-08-07T05:44:45;17.90;99.90
20977;DHT22;10647;51.016;3.720;2022-08-07T05:47:15;18.00;99.90
20977;DHT22;10647;51.016;3.720;2022-08-07T05:49:47;18.10;99.90
20977;DHT22;10647;51.016;3.720;2022-08-07T05:52:17;18.10;99.90
20977;DHT22;10647;51.016;3.720;2022-08-07T05:54:45;18.10;99.90
20977;DHT22;10647;51.016;3.720;2022-08-07T05:57:14;18.20;99.90
20977;DHT22;10647;51.016;3.720;2022-08-07T05:59:44;18.20;99.90
20977;DHT22;10647;51.016;3.720;2022-08-07T06:02:16;18.30;99.90
20977;DHT22;10647;51.016;3.720;2022-08-07T06:04:54;18.40;99.90
20977;DHT22;10647;51.016;3.720;2022-08-07T06:07:22;18.40;99.90
20977;DHT22;10647;51.016;3.720;2022-08-07T06:09:50;18.50;99.90
20977;DHT22;10647;51.016;3.720;2022-08-07T06:12:18;18.60;99.90
20977;DHT22;10647;51.016;3.720;2022-08-07T06:14:46;18.60;99.90
20977;DHT22;10647;51.016;3.720;2022-08-07T06:17:14;18.70;99.90
20977;DHT22;10647;51.016;3.720;2022-08-07T06:19:42;18.70;99.90
20977;DHT22;10647;51.016;3.720;2022-08-07T06:22:10;18.80;99.90
20977;DHT22;10647;51.016;3.720;2022-08-07T06:24:38;18.90;99.90
20977;DHT22;10647;51.016;3.720;2022-08-07T06:27:06;18.90;99.90
20977;DHT22;10647;51.016;3.720;2022-08-07T06:29:39;19.00;99.90
20977;DHT22;10647;51.016;3.720;2022-08-07T06:32:08;19.10;99.90
20977;DHT22;10647;51.016;3.720;2022-08-07T06:34:35;19.20;99.90
20977;DHT22;10647;51.016;3.720;2022-08-07T06:37:03;19.30;99.90
20977;DHT22;10647;51.016;3.720;2022-08-07T06:39:30;19.30;99.90
20977;DHT22;10647;51.016;3.720;2022-08-07T06:42:06;19.40;99.90
20977;DHT22;10647;51.016;3.720;2022-08-07T06:44:37;19.40;99.90
20977;DHT22;10647;51.016;3.720;2022-08-07T06:47:06;19.50;99.90
20977;DHT22;10647;51.016;3.720;2022-08-07T06:49:34;19.60;99.90
20977;DHT22;10647;51.016;3.720;2022-08-07T06:52:02;19.60;99.90
20977;DHT22;10647;51.016;3.720;2022-08-07T06:54:31;19.70;99.90
20977;DHT22;10647;51.016;3.720;2022-08-07T06:56:59;19.70;99.90
20977;DHT22;10647;51.016;3.720;2022-08-07T06:59:34;19.80;99.90
20977;DHT22;10647;51.016;3.720;2022-08-07T07:01:58;19.90;99.90
20977;DHT22;10647;51.016;3.720;2022-08-07T07:04:28;19.90;99.90
20977;DHT22;10647;51.016;3.720;2022-08-07T07:07:04;20.00;99.90
20977;DHT22;10647;51.016;3.720;2022-08-07T07:09:29;20.00;99.90
20977;DHT22;10647;51.016;3.720;2022-08-07T07:15:19;20.10;99.90
20977;DHT22;10647;51.016;3.720;2022-08-07T07:17:03;20.20;99.90
20977;DHT22;10647;51.016;3.720;2022-08-07T07:19:37;20.30;99.90
20977;DHT22;10647;51.016;3.720;2022-08-07T07:22:06;20.40;99.90
20977;DHT22;10647;51.016;3.720;2022-08-07T07:24:38;20.40;99.90
20977;DHT22;10647;51.016;3.720;2022-08-07T07:27:07;20.50;99.90
20977;DHT22;10647;51.016;3.720;2022-08-07T07:29:39;20.60;99.90
20977;DHT22;10647;51.016;3.720;2022-08-07T07:32:10;20.60;99.90
20977;DHT22;10647;51.016;3.720;2022-08-07T07:34:41;20.70;99.90
20977;DHT22;10647;51.016;3.720;2022-08-07T07:37:10;20.80;99.90
20977;DHT22;10647;51.016;3.720;2022-08-07T07:39:38;20.80;99.90
20977;DHT22;10647;51.016;3.720;2022-08-07T07:42:09;20.90;99.90
20977;DHT22;10647;51.016;3.720;2022-08-07T07:44:40;21.00;99.70
20977;DHT22;10647;51.016;3.720;2022-08-07T07:47:09;21.10;99.00
20977;DHT22;10647;51.016;3.720;2022-08-07T07:49:38;21.10;98.20
20977;DHT22;10647;51.016;3.720;2022-08-07T07:52:07;21.10;97.90
20977;DHT22;10647;51.016;3.720;2022-08-07T07:54:36;21.10;97.30
20977;DHT22;10647;51.016;3.720;2022-08-07T07:57:05;21.20;97.10
20977;DHT22;10647;51.016;3.720;2022-08-07T07:59:34;21.30;96.80
20977;DHT22;10647;51.016;3.720;2022-08-07T08:02:09;21.30;96.50
20977;DHT22;10647;51.016;3.720;2022-08-07T08:04:38;21.40;96.30
20977;DHT22;10647;51.016;3.720;2022-08-07T08:07:07;21.50;96.00
20977;DHT22;10647;51.016;3.720;2022-08-07T08:09:39;21.50;95.80
20977;DHT22;10647;51.016;3.720;2022-08-07T08:12:10;21.60;95.80
20977;DHT22;10647;51.016;3.720;2022-08-07T08:14:38;21.70;95.60
20977;DHT22;10647;51.016;3.720;2022-08-07T08:17:12;21.80;95.30
20977;DHT22;10647;51.016;3.720;2022-08-07T08:19:41;21.80;94.50
20977;DHT22;10647;51.016;3.720;2022-08-07T08:22:11;21.80;94.20
20977;DHT22;10647;51.016;3.720;2022-08-07T08:24:58;21.90;94.30
20977;DHT22;10647;51.016;3.720;2022-08-07T08:27:47;22.00;94.20
20977;DHT22;10647;51.016;3.720;2022-08-07T08:30:14;22.00;93.70
20977;DHT22;10647;51.016;3.720;2022-08-07T08:32:58;22.00;93.80
20977;DHT22;10647;51.016;3.720;2022-08-07T08:35:29;22.00;93.90
20977;DHT22;10647;51.016;3.720;2022-08-07T08:37:59;22.10;93.90
20977;DHT22;10647;51.016;3.720;2022-08-07T08:40:36;22.10;93.90
20977;DHT22;10647;51.016;3.720;2022-08-07T08:43:27;22.20;92.50
20977;DHT22;10647;51.016;3.720;2022-08-07T08:45:52;22.20;91.50
20977;DHT22;10647;51.016;3.720;2022-08-07T08:51:27;22.30;90.80
20977;DHT22;10647;51.016;3.720;2022-08-07T08:54:33;22.30;91.20
20977;DHT22;10647;51.016;3.720;2022-08-07T08:56:42;22.40;91.30
20977;DHT22;10647;51.016;3.720;2022-08-07T08:59:28;22.50;91.20
20977;DHT22;10647;51.016;3.720;2022-08-07T09:10:41;22.90;90.70
20977;DHT22;10647;51.016;3.720;2022-08-07T09:13:31;22.90;90.60
20977;DHT22;10647;51.016;3.720;2022-08-07T09:19:01;23.00;90.50
20977;DHT22;10647;51.016;3.720;2022-08-07T09:30:02;23.20;88.80
20977;DHT22;10647;51.016;3.720;2022-08-07T09:44:27;23.60;85.80
20977;DHT22;10647;51.016;3.720;2022-08-07T09:47:18;23.60;84.00
20977;DHT22;10647;51.016;3.720;2022-08-07T09:57:43;23.70;83.60
20977;DHT22;10647;51.016;3.720;2022-08-07T10:00:08;23.70;82.90
20977;DHT22;10647;51.016;3.720;2022-08-07T10:02:54;23.80;82.70
20977;DHT22;10647;51.016;3.720;2022-08-07T10:13:44;24.00;81.20
20977;DHT22;10647;51.016;3.720;2022-08-07T10:16:28;24.00;80.80
20977;DHT22;10647;51.016;3.720;2022-08-07T10:19:07;24.20;80.70
20977;DHT22;10647;51.016;3.720;2022-08-07T10:21:48;24.20;80.20
20977;DHT22;10647;51.016;3.720;2022-08-07T10:29:56;24.50;79.10
20977;DHT22;10647;51.016;3.720;2022-08-07T10:35:29;24.70;77.00
20977;DHT22;10647;51.016;3.720;2022-08-07T10:44:07;24.80;74.60
20977;DHT22;10647;51.016;3.720;2022-08-07T10:46:38;24.80;73.10
20977;DHT22;10647;51.016;3.720;2022-08-07T10:52:05;24.80;72.70
20977;DHT22;10647;51.016;3.720;2022-08-07T10:54:56;24.90;71.60
20977;DHT22;10647;51.016;3.720;2022-08-07T11:00:08;24.80;70.80
20977;DHT22;10647;51.016;3.720;2022-08-07T11:02:39;24.80;70.40
20977;DHT22;10647;51.016;3.720;2022-08-07T11:08:24;24.80;69.90
20977;DHT22;10647;51.016;3.720;2022-08-07T11:13:40;24.90;69.30
20977;DHT22;10647;51.016;3.720;2022-08-07T11:16:16;24.90;69.30
20977;DHT22;10647;51.016;3.720;2022-08-07T11:18:48;25.00;69.00
20977;DHT22;10647;51.016;3.720;2022-08-07T11:21:28;25.10;68.80
20977;DHT22;10647;51.016;3.720;2022-08-07T11:24:04;25.10;67.90
20977;DHT22;10647;51.016;3.720;2022-08-07T11:29:32;25.20;68.20
20977;DHT22;10647;51.016;3.720;2022-08-07T11:32:09;25.40;68.10
20977;DHT22;10647;51.016;3.720;2022-08-07T11:39:55;25.70;67.40
20977;DHT22;10647;51.016;3.720;2022-08-07T11:45:14;25.70;66.90
20977;DHT22;10647;51.016;3.720;2022-08-07T12:04:37;25.90;64.10
20977;DHT22;10647;51.016;3.720;2022-08-07T12:10:02;26.10;64.10
20977;DHT22;10647;51.016;3.720;2022-08-07T12:12:36;26.10;64.20
20977;DHT22;10647;51.016;3.720;2022-08-07T12:15:13;26.10;64.50
20977;DHT22;10647;51.016;3.720;2022-08-07T12:17:48;26.10;65.10
20977;DHT22;10647;51.016;3.720;2022-08-07T12:20:41;26.20;65.40
20977;DHT22;10647;51.016;3.720;2022-08-07T12:23:08;26.20;65.40
20977;DHT22;10647;51.016;3.720;2022-08-07T12:25:43;26.20;65.30
20977;DHT22;10647;51.016;3.720;2022-08-07T12:31:08;26.30;66.20
20977;DHT22;10647;51.016;3.720;2022-08-07T12:33:34;26.40;66.30
20977;DHT22;10647;51.016;3.720;2022-08-07T12:36:03;26.50;66.40
20977;DHT22;10647;51.016;3.720;2022-08-07T12:38:32;26.50;66.00
20977;DHT22;10647;51.016;3.720;2022-08-07T12:41:02;26.70;65.80
20977;DHT22;10647;51.016;3.720;2022-08-07T12:43:32;26.80;65.00
20977;DHT22;10647;51.016;3.720;2022-08-07T12:51:19;27.10;65.70
20977;DHT22;10647;51.016;3.720;2022-08-07T12:53:54;27.20;64.90
20977;DHT22;10647;51.016;3.720;2022-08-07T12:56:30;27.30;64.20
20977;DHT22;10647;51.016;3.720;2022-08-07T12:58:58;27.20;64.30
20977;DHT22;10647;51.016;3.720;2022-08-07T13:01:29;27.20;64.60
20977;DHT22;10647;51.016;3.720;2022-08-07T13:06:43;27.60;64.90
20977;DHT22;10647;51.016;3.720;2022-08-07T13:09:13;28.90;63.70
20977;DHT22;10647;51.016;3.720;2022-08-07T13:14:42;38.00;53.60
20977;DHT22;10647;51.016;3.720;2022-08-07T13:20:02;42.50;44.90
20977;DHT22;10647;51.016;3.720;2022-08-07T13:22:36;44.20;42.20
20977;DHT22;10647;51.016;3.720;2022-08-07T13:25:10;45.20;40.10
20977;DHT22;10647;51.016;3.720;2022-08-07T13:27:41;45.60;38.70
20977;DHT22;10647;51.016;3.720;2022-08-07T13:30:10;46.00;37.00
20977;DHT22;10647;51.016;3.720;2022-08-07T13:32:54;46.60;36.70
20977;DHT22;10647;51.016;3.720;2022-08-07T13:35:31;47.20;36.30
20977;DHT22;10647;51.016;3.720;2022-08-07T13:38:19;47.70;36.00
20977;DHT22;10647;51.016;3.720;2022-08-07T13:41:24;47.50;35.40
20977;DHT22;10647;51.016;3.720;2022-08-07T13:43:46;47.40;35.30
20977;DHT22;10647;51.016;3.720;2022-08-07T13:46:17;48.00;35.00
20977;DHT22;10647;51.016;3.720;2022-08-07T13:48:51;48.30;33.70
20977;DHT22;10647;51.016;3.720;2022-08-07T13:51:17;48.20;33.30
20977;DHT22;10647;51.016;3.720;2022-08-07T13:53:55;48.70;33.10
20977;DHT22;10647;51.016;3.720;2022-08-07T13:56:21;48.50;32.70
20977;DHT22;10647;51.016;3.720;2022-08-07T13:58:50;48.50;33.20
20977;DHT22;10647;51.016;3.720;2022-08-07T14:01:43;49.20;32.50
20977;DHT22;10647;51.016;3.720;2022-08-07T14:04:14;49.20;31.80
20977;DHT22;10647;51.016;3.720;2022-08-07T14:06:43;49.20;31.90
20977;DHT22;10647;51.016;3.720;2022-08-07T14:09:20;49.20;31.90
20977;DHT22;10647;51.016;3.720;2022-08-07T14:12:02;49.50;31.70
20977;DHT22;10647;51.016;3.720;2022-08-07T14:14:40;49.20;31.30
20977;DHT22;10647;51.016;3.720;2022-08-07T14:17:10;48.90;31.40
20977;DHT22;10647;51.016;3.720;2022-08-07T14:19:46;48.80;31.50
20977;DHT22;10647;51.016;3.720;2022-08-07T14:22:24;48.80;31.60
20977;DHT22;10647;51.016;3.720;2022-08-07T14:24:59;49.10;31.20
20977;DHT22;10647;51.016;3.720;2022-08-07T14:27:35;48.70;30.60
20977;DHT22;10647;51.016;3.720;2022-08-07T14:30:06;49.00;30.80
20977;DHT22;10647;51.016;3.720;2022-08-07T14:35:31;49.60;30.10
20977;DHT22;10647;51.016;3.720;2022-08-07T14:38:00;49.30;30.10
20977;DHT22;10647;51.016;3.720;2022-08-07T14:40:29;49.50;30.10
20977;DHT22;10647;51.016;3.720;2022-08-07T14:43:12;49.60;30.00
20977;DHT22;10647;51.016;3.720;2022-08-07T14:45:52;49.40;29.70
20977;DHT22;10647;51.016;3.720;2022-08-07T14:48:18;49.10;29.90
20977;DHT22;10647;51.016;3.720;2022-08-07T14:50:51;48.90;29.90
20977;DHT22;10647;51.016;3.720;2022-08-07T14:53:24;48.90;29.70
20977;DHT22;10647;51.016;3.720;2022-08-07T14:55:55;49.10;29.60
20977;DHT22;10647;51.016;3.720;2022-08-07T14:58:30;48.80;29.70
20977;DHT22;10647;51.016;3.720;2022-08-07T15:00:58;48.70;30.00
20977;DHT22;10647;51.016;3.720;2022-08-07T15:03:27;49.00;30.00
20977;DHT22;10647;51.016;3.720;2022-08-07T15:05:57;49.10;30.00
20977;DHT22;10647;51.016;3.720;2022-08-07T15:08:42;48.80;30.10
20977;DHT22;10647;51.016;3.720;2022-08-07T15:11:14;48.90;30.00
20977;DHT22;10647;51.016;3.720;2022-08-07T15:13:53;49.00;30.00
20977;DHT22;10647;51.016;3.720;2022-08-07T15:16:23;48.60;31.00
20977;DHT22;10647;51.016;3.720;2022-08-07T15:18:51;48.20;30.40
20977;DHT22;10647;51.016;3.720;2022-08-07T15:21:28;46.10;31.10
20977;DHT22;10647;51.016;3.720;2022-08-07T15:24:01;43.30;32.70
20977;DHT22;10647;51.016;3.720;2022-08-07T15:26:37;41.70;34.40
20977;DHT22;10647;51.016;3.720;2022-08-07T15:29:09;40.90;35.10
20977;DHT22;10647;51.016;3.720;2022-08-07T15:31:39;39.40;35.90
20977;DHT22;10647;51.016;3.720;2022-08-07T15:34:08;37.50;38.00
20977;DHT22;10647;51.016;3.720;2022-08-07T15:36:39;35.90;39.60
20977;DHT22;10647;51.016;3.720;2022-08-07T15:39:09;34.70;41.60
20977;DHT22;10647;51.016;3.720;2022-08-07T15:42:00;33.60;43.00
20977;DHT22;10647;51.016;3.720;2022-08-07T15:44:42;32.50;44.10
20977;DHT22;10647;51.016;3.720;2022-08-07T15:47:13;32.10;45.60
20977;DHT22;10647;51.016;3.720;2022-08-07T15:49:45;31.70;46.60
20977;DHT22;10647;51.016;3.720;2022-08-07T15:52:24;31.20;47.80
20977;DHT22;10647;51.016;3.720;2022-08-07T15:54:51;30.70;48.70
20977;DHT22;10647;51.016;3.720;2022-08-07T15:57:26;30.10;49.70
20977;DHT22;10647;51.016;3.720;2022-08-07T16:00:01;29.70;50.20
20977;DHT22;10647;51.016;3.720;2022-08-07T16:02:32;29.40;51.00
20977;DHT22;10647;51.016;3.720;2022-08-07T16:05:05;29.20;51.50
20977;DHT22;10647;51.016;3.720;2022-08-07T16:07:39;28.90;51.70
20977;DHT22;10647;51.016;3.720;2022-08-07T16:10:15;28.70;51.50
20977;DHT22;10647;51.016;3.720;2022-08-07T16:23:52;28.10;53.70
20977;DHT22;10647;51.016;3.720;2022-08-07T16:29:18;28.00;53.80
20977;DHT22;10647;51.016;3.720;2022-08-07T16:37:26;27.90;54.30
20977;DHT22;10647;51.016;3.720;2022-08-07T16:45:49;27.60;54.50
20977;DHT22;10647;51.016;3.720;2022-08-07T16:48:33;27.50;54.60
20977;DHT22;10647;51.016;3.720;2022-08-07T16:50:57;27.40;55.00
20977;DHT22;10647;51.016;3.720;2022-08-07T16:56:24;27.30;55.50
20977;DHT22;10647;51.016;3.720;2022-08-07T16:59:06;27.30;55.80
20977;DHT22;10647;51.016;3.720;2022-08-07T17:02:23;27.30;55.90
20977;DHT22;10647;51.016;3.720;2022-08-07T17:04:17;27.30;56.00
20977;DHT22;10647;51.016;3.720;2022-08-07T17:06:54;27.20;56.30
20977;DHT22;10647;51.016;3.720;2022-08-07T17:17:56;27.20;56.50
20977;DHT22;10647;51.016;3.720;2022-08-07T17:20:32;27.20;56.50
20977;DHT22;10647;51.016;3.720;2022-08-07T17:26:00;27.10;56.60
20977;DHT22;10647;51.016;3.720;2022-08-07T17:28:36;27.20;56.80
20977;DHT22;10647;51.016;3.720;2022-08-07T17:31:12;27.20;56.80
20977;DHT22;10647;51.016;3.720;2022-08-07T17:33:44;27.20;56.90
20977;DHT22;10647;51.016;3.720;2022-08-07T17:36:25;27.10;57.00
20977;DHT22;10647;51.016;3.720;2022-08-07T17:39:16;27.10;57.10
20977;DHT22;10647;51.016;3.720;2022-08-07T17:41:56;27.10;57.10
20977;DHT22;10647;51.016;3.720;2022-08-07T17:44:49;27.10;57.20
20977;DHT22;10647;51.016;3.720;2022-08-07T17:49:52;26.80;58.20
20977;DHT22;10647;51.016;3.720;2022-08-07T17:52:35;26.70;58.40
20977;DHT22;10647;51.016;3.720;2022-08-07T17:55:13;26.60;58.70
20977;DHT22;10647;51.016;3.720;2022-08-07T17:57:49;26.50;59.10
20977;DHT22;10647;51.016;3.720;2022-08-07T18:00:26;26.40;59.30
20977;DHT22;10647;51.016;3.720;2022-08-07T18:02:59;26.40;59.50
20977;DHT22;10647;51.016;3.720;2022-08-07T18:05:51;26.40;59.60
20977;DHT22;10647;51.016;3.720;2022-08-07T18:08:30;26.30;59.30
20977;DHT22;10647;51.016;3.720;2022-08-07T18:14:03;26.10;60.40
20977;DHT22;10647;51.016;3.720;2022-08-07T18:16:35;25.90;60.80
20977;DHT22;10647;51.016;3.720;2022-08-07T18:19:07;25.80;61.30
20977;DHT22;10647;51.016;3.720;2022-08-07T18:21:38;25.70;61.60
20977;DHT22;10647;51.016;3.720;2022-08-07T18:37:44;26.60;60.80
20977;DHT22;10647;51.016;3.720;2022-08-07T18:40:26;26.90;60.10
20977;DHT22;10647;51.016;3.720;2022-08-07T18:43:02;26.50;60.10
20977;DHT22;10647;51.016;3.720;2022-08-07T18:45:50;26.40;60.50
20977;DHT22;10647;51.016;3.720;2022-08-07T18:48:45;26.10;61.00
20977;DHT22;10647;51.016;3.720;2022-08-07T18:54:23;25.40;62.20
20977;DHT22;10647;51.016;3.720;2022-08-07T18:56:51;25.20;63.00
20977;DHT22;10647;51.016;3.720;2022-08-07T19:02:51;24.70;64.60
20977;DHT22;10647;51.016;3.720;2022-08-07T19:10:33;24.10;67.00
20977;DHT22;10647;51.016;3.720;2022-08-07T19:13:25;23.90;67.90
20977;DHT22;10647;51.016;3.720;2022-08-07T19:21:11;23.40;69.80
20977;DHT22;10647;51.016;3.720;2022-08-07T19:23:43;23.40;70.30
20977;DHT22;10647;51.016;3.720;2022-08-07T19:26:13;23.30;71.00
20977;DHT22;10647;51.016;3.720;2022-08-07T19:28:50;23.20;71.40
20977;DHT22;10647;51.016;3.720;2022-08-07T19:31:36;23.10;72.00
20977;DHT22;10647;51.016;3.720;2022-08-07T19:34:02;23.00;71.90
20977;DHT22;10647;51.016;3.720;2022-08-07T19:36:36;23.00;71.70
20977;DHT22;10647;51.016;3.720;2022-08-07T19:39:02;22.80;71.60
20977;DHT22;10647;51.016;3.720;2022-08-07T19:41:33;22.80;71.50
20977;DHT22;10647;51.016;3.720;2022-08-07T19:44:02;22.80;71.50
20977;DHT22;10647;51.016;3.720;2022-08-07T19:46:37;22.70;71.70